createdAt,value
2022-11-15T08:33:56.361Z,35.90
2022-11-15T08:36:45.905Z,41.88
2022-11-15T08:39:31.852Z,31.85
2022-11-15T08:42:20.047Z,36.85
2022-11-15T08:45:06.715Z,35.65
2022-11-15T08:47:54.396Z,41.53
2022-11-15T08:50:39.901Z,38.15
2022-11-15T08:53:25.651Z,33.67
2022-11-15T08:56:15.966Z,34.13
2022-11-15T08:59:01.652Z,34.25
2022-11-15T09:01:47.314Z,32.63
2022-11-15T09:04:33.286Z,36.15
2022-11-15T09:07:21.724Z,45.97
2022-11-15T09:10:07.547Z,39.03
2022-11-15T09:12:58.538Z,37.25
2022-11-15T09:15:44.227Z,39.20
2022-11-15T09:18:30.370Z,41.47
2022-11-15T09:21:18.822Z,38.60
2022-11-15T09:24:05.317Z,41.75
2022-11-15T09:26:52.320Z,42.28
2022-11-15T09:29:37.911Z,45.17
2022-11-15T09:32:24.532Z,62.33
2022-11-15T09:35:10.319Z,36.45
2022-11-15T09:37:57.844Z,42.60
2022-11-15T09:40:43.195Z,48.05
2022-11-15T09:43:52.017Z,44.38
2022-11-15T09:47:02.152Z,39.65
2022-11-15T09:49:58.706Z,43.13
2022-11-15T09:52:34.560Z,57.53
2022-11-15T09:55:01.517Z,41.63
2022-11-15T09:57:53.517Z,39.42
2022-11-15T10:00:48.744Z,40.88
2022-11-15T10:03:19.132Z,34.47
2022-11-15T10:05:51.582Z,36.17
2022-11-15T10:08:27.801Z,31.25
2022-11-15T10:11:30.631Z,37.63
2022-11-15T10:13:52.566Z,35.55
2022-11-15T10:16:48.307Z,32.50
2022-11-15T10:19:39.680Z,36.30
2022-11-15T10:22:36.201Z,36.03
2022-11-15T10:25:18.239Z,37.58
2022-11-15T10:28:07.161Z,41.00
2022-11-15T10:30:38.661Z,33.28
2022-11-15T10:33:35.857Z,39.47
2022-11-15T10:36:09.586Z,40.08
2022-11-15T10:38:51.443Z,36.90
2022-11-15T10:41:30.610Z,34.78
2022-11-15T10:44:21.581Z,34.13
2022-11-15T10:47:07.752Z,39.65
2022-11-15T10:49:35.857Z,47.53
2022-11-15T10:52:21.656Z,42.63
2022-11-15T10:54:58.065Z,45.40
2022-11-15T10:57:34.717Z,51.65
2022-11-15T11:00:20.199Z,49.38
2022-11-15T11:02:57.697Z,43.17
2022-11-15T11:06:04.447Z,44.95
2022-11-15T11:08:31.596Z,45.50
2022-11-15T11:11:03.962Z,45.17
2022-11-15T11:13:32.402Z,40.97
2022-11-15T11:16:21.083Z,44.38
2022-11-15T11:19:31.639Z,47.30
2022-11-15T11:22:26.671Z,37.92
2022-11-15T11:25:01.481Z,40.53
2022-11-15T11:27:47.019Z,50.63
2022-11-15T11:30:52.958Z,39.22
2022-11-15T11:33:33.677Z,38.58
2022-11-15T11:36:19.331Z,37.95
2022-11-15T11:39:01.522Z,50.53
2022-11-15T11:41:50.324Z,43.03
2022-11-15T11:44:20.347Z,42.72
2022-11-15T11:46:59.913Z,43.55
2022-11-15T11:49:54.606Z,44.53
2022-11-15T11:53:12.584Z,40.05
2022-11-15T11:55:53.608Z,42.10
2022-11-15T11:58:34.882Z,39.95
2022-11-15T12:01:30.176Z,38.58
2022-11-15T12:04:10.797Z,38.45
2022-11-15T12:06:50.692Z,30.30
2022-11-15T12:09:42.396Z,31.33
2022-11-15T12:12:32.805Z,32.40
2022-11-15T12:15:15.642Z,34.63
2022-11-15T12:20:18.225Z,28.92
2022-11-15T12:22:56.995Z,25.92
2022-11-15T12:25:28.592Z,26.80
2022-11-15T12:28:29.220Z,33.20
2022-11-15T12:31:21.565Z,32.38
2022-11-15T12:33:49.940Z,40.42
2022-11-15T12:36:22.846Z,25.73
2022-11-15T12:39:01.369Z,34.58
2022-11-15T12:41:42.325Z,27.30
2022-11-15T12:44:14.478Z,34.50
2022-11-15T12:46:47.033Z,28.90
2022-11-15T12:49:29.178Z,42.83
2022-11-15T12:51:58.972Z,28.20
2022-11-15T12:54:25.850Z,29.70
2022-11-15T12:57:04.661Z,32.92
2022-11-15T13:00:25.371Z,26.25
2022-11-15T13:03:20.441Z,33.60
2022-11-15T13:05:54.295Z,32.63
2022-11-15T13:08:38.635Z,28.13
2022-11-15T13:11:45.540Z,28.23
2022-11-15T13:14:46.516Z,32.60
2022-11-15T13:17:48.654Z,27.98
2022-11-15T13:20:15.553Z,27.65
2022-11-15T13:22:52.743Z,32.88
2022-11-15T19:00:37.943Z,42.38
2022-11-15T19:03:04.825Z,52.65
2022-11-15T19:05:31.655Z,45.08
2022-11-15T19:07:58.418Z,57.75
2022-11-15T19:10:25.842Z,44.67
2022-11-15T19:12:52.656Z,44.28
2022-11-15T19:15:19.495Z,49.97
2022-11-15T19:17:46.347Z,42.50
2022-11-15T19:20:13.119Z,61.38
2022-11-15T19:22:42.606Z,44.78
2022-11-15T19:25:10.849Z,43.53
2022-11-15T19:27:38.325Z,42.72
2022-11-15T19:30:05.804Z,42.85
2022-11-15T19:32:32.606Z,43.47
2022-11-15T19:34:59.500Z,50.08
2022-11-15T19:37:26.418Z,41.60
2022-11-15T19:39:53.204Z,47.30
2022-11-15T19:42:20.038Z,46.28
2022-11-15T19:44:46.934Z,44.97
2022-11-15T19:47:16.635Z,43.80
2022-11-15T19:49:43.599Z,39.95
2022-11-15T19:52:10.424Z,46.40
2022-11-15T19:54:37.261Z,45.78
2022-11-15T19:57:04.173Z,42.53
2022-11-15T19:59:30.986Z,43.30
2022-11-15T20:01:57.818Z,42.35
2022-11-15T20:04:24.596Z,46.92
2022-11-15T20:06:51.434Z,53.15
2022-11-15T20:09:18.476Z,47.70
2022-11-15T20:11:45.600Z,42.30
2022-11-15T20:14:13.245Z,45.33
2022-11-15T20:16:40.354Z,48.00
2022-11-15T20:19:08.755Z,42.30
2022-11-15T20:21:36.186Z,44.35
2022-11-15T20:24:03.442Z,44.88
2022-11-15T20:26:32.245Z,50.33
2022-11-15T20:29:03.956Z,50.50
2022-11-15T20:31:31.660Z,54.05
2022-11-15T20:33:59.280Z,49.20
2022-11-15T20:36:26.611Z,50.50
2022-11-15T20:38:58.863Z,46.05
2022-11-15T20:41:27.777Z,54.45
2022-11-15T20:43:56.094Z,51.67
2022-11-15T20:46:24.201Z,47.35
2022-11-15T20:48:52.326Z,52.55
2022-11-15T20:51:21.127Z,51.00
2022-11-15T20:53:50.021Z,44.97
2022-11-15T20:56:22.947Z,48.80
2022-11-15T20:58:51.707Z,43.80
2022-11-15T21:01:24.595Z,48.72
2022-11-15T21:03:57.151Z,48.83
2022-11-15T21:06:26.728Z,44.35
2022-11-15T21:09:14.932Z,46.45
2022-11-15T21:12:06.192Z,52.42
2022-11-15T21:14:34.093Z,61.20
2022-11-15T21:17:02.187Z,45.47
2022-11-15T21:19:35.591Z,50.13
2022-11-15T21:22:05.334Z,50.30
2022-11-15T21:24:33.076Z,51.08
2022-11-15T21:27:00.103Z,47.92
2022-11-15T21:29:28.433Z,54.53
2022-11-15T21:31:55.376Z,45.28
2022-11-15T21:34:22.264Z,44.55
2022-11-15T21:36:49.058Z,43.45
2022-11-15T21:39:17.269Z,45.65
2022-11-15T21:41:46.397Z,57.75
2022-11-15T21:44:13.150Z,42.75
2022-11-15T21:46:40.075Z,42.05
2022-11-15T21:49:07.107Z,43.80
2022-11-15T21:51:34.070Z,39.53
2022-11-15T21:54:01.696Z,44.78
2022-11-15T21:56:29.503Z,40.65
2022-11-15T21:58:56.712Z,47.92
2022-11-15T22:01:43.598Z,43.10
2022-11-15T22:04:10.511Z,52.83
